sensor_id;sensor_type;location;lat;lon;timestamp;pressure;altitude;pressure_sealevel;temperature;humidity
31183;BME280;17813;0.000;0.000;2023-08-30T00:01:42;98674.69;;;15.04;86.87
31183;BME280;17813;0.000;0.000;2023-08-30T00:04:09;98676.22;;;15.06;87.01
31183;BME280;17813;0.000;0.000;2023-08-30T00:06:36;98671.44;;;15.10;86.90
31183;BME280;17813;0.000;0.000;2023-08-30T00:09:03;98674.25;;;15.08;86.79
31183;BME280;17813;0.000;0.000;2023-08-30T00:11:30;98672.56;;;15.07;87.34
31183;BME280;17813;0.000;0.000;2023-08-30T00:14:06;98670.34;;;15.03;87.29
31183;BME280;17813;0.000;0.000;2023-08-30T00:16:33;98663.72;;;15.07;87.20
31183;BME280;17813;0.000;0.000;2023-08-30T00:19:00;98671.59;;;15.08;87.24
31183;BME280;17813;0.000;0.000;2023-08-30T00:21:27;98667.09;;;15.09;87.22
31183;BME280;17813;0.000;0.000;2023-08-30T00:23:54;98661.75;;;15.09;87.16
31183;BME280;17813;0.000;0.000;2023-08-30T00:26:21;98673.41;;;15.08;87.38
31183;BME280;17813;0.000;0.000;2023-08-30T00:28:48;98670.19;;;15.04;87.46
31183;BME280;17813;0.000;0.000;2023-08-30T00:31:15;98674.84;;;15.02;87.65
31183;BME280;17813;0.000;0.000;2023-08-30T00:33:45;98678.63;;;15.00;88.10
31183;BME280;17813;0.000;0.000;2023-08-30T00:36:12;98672.59;;;14.98;88.20
31183;BME280;17813;0.000;0.000;2023-08-30T00:38:39;98674.84;;;15.02;88.07
31183;BME280;17813;0.000;0.000;2023-08-30T00:41:06;98678.63;;;15.00;88.35
31183;BME280;17813;0.000;0.000;2023-08-30T00:43:33;98673.28;;;15.00;88.10
31183;BME280;17813;0.000;0.000;2023-08-30T00:46:00;98677.91;;;14.98;88.35
31183;BME280;17813;0.000;0.000;2023-08-30T00:48:27;98669.91;;;14.98;88.17
31183;BME280;17813;0.000;0.000;2023-08-30T00:50:55;98677.09;;;14.97;88.27
31183;BME280;17813;0.000;0.000;2023-08-30T00:53:22;98681.03;;;14.93;88.09
31183;BME280;17813;0.000;0.000;2023-08-30T00:55:50;98689.16;;;14.92;88.27
31183;BME280;17813;0.000;0.000;2023-08-30T00:58:17;98676.94;;;14.89;87.93
31183;BME280;17813;0.000;0.000;2023-08-30T01:00:44;98687.19;;;14.84;87.94
31183;BME280;17813;0.000;0.000;2023-08-30T01:03:12;98685.09;;;14.88;88.05
31183;BME280;17813;0.000;0.000;2023-08-30T01:05:40;98681.72;;;14.86;88.27
31183;BME280;17813;0.000;0.000;2023-08-30T01:08:07;98679.19;;;14.84;88.05
31183;BME280;17813;0.000;0.000;2023-08-30T01:11:00;98675.81;;;14.72;88.59
31183;BME280;17813;0.000;0.000;2023-08-30T01:13:32;98685.53;;;14.73;88.64
31183;BME280;17813;0.000;0.000;2023-08-30T01:16:00;98681.44;;;14.79;88.71
31183;BME280;17813;0.000;0.000;2023-08-30T01:18:34;98680.47;;;14.80;88.23
31183;BME280;17813;0.000;0.000;2023-08-30T01:21:03;98671.19;;;14.84;88.21
31183;BME280;17813;0.000;0.000;2023-08-30T01:23:48;98669.94;;;14.78;87.79
31183;BME280;17813;0.000;0.000;2023-08-30T01:29:25;98668.38;;;14.86;88.13
31183;BME280;17813;0.000;0.000;2023-08-30T01:31:53;98654.47;;;14.92;88.21
31183;BME280;17813;0.000;0.000;2023-08-30T01:34:22;98657.69;;;14.95;87.89
31183;BME280;17813;0.000;0.000;2023-08-30T01:36:49;98658.41;;;14.97;87.67
31183;BME280;17813;0.000;0.000;2023-08-30T01:39:17;98664.44;;;14.99;87.63
31183;BME280;17813;0.000;0.000;2023-08-30T01:41:44;98669.34;;;14.94;87.60
31183;BME280;17813;0.000;0.000;2023-08-30T01:44:13;98666.97;;;14.82;88.20
31183;BME280;17813;0.000;0.000;2023-08-30T01:46:44;98665.56;;;14.68;88.64
31183;BME280;17813;0.000;0.000;2023-08-30T01:49:13;98672.16;;;14.64;88.60
31183;BME280;17813;0.000;0.000;2023-08-30T01:51:40;98678.34;;;14.64;88.54
31183;BME280;17813;0.000;0.000;2023-08-30T01:54:09;98676.09;;;14.60;88.43
31183;BME280;17813;0.000;0.000;2023-08-30T01:56:40;98680.03;;;14.56;88.48
31183;BME280;17813;0.000;0.000;2023-08-30T01:59:06;98680.59;;;14.50;88.60
31183;BME280;17813;0.000;0.000;2023-08-30T02:01:35;98689.38;;;14.40;88.37
31183;BME280;17813;0.000;0.000;2023-08-30T02:04:05;98684.75;;;14.33;88.46
31183;BME280;17813;0.000;0.000;2023-08-30T02:07:00;98685.41;;;14.15;89.24
31183;BME280;17813;0.000;0.000;2023-08-30T02:09:52;98682.44;;;14.09;89.72
31183;BME280;17813;0.000;0.000;2023-08-30T02:12:27;98672.44;;;14.01;90.22
31183;BME280;17813;0.000;0.000;2023-08-30T02:14:56;98679.75;;;13.99;89.61
31183;BME280;17813;0.000;0.000;2023-08-30T02:17:24;98676.38;;;13.97;89.35
31183;BME280;17813;0.000;0.000;2023-08-30T02:19:51;98667.22;;;13.90;89.38
31183;BME280;17813;0.000;0.000;2023-08-30T02:22:20;98678.16;;;13.87;89.57
31183;BME280;17813;0.000;0.000;2023-08-30T02:24:47;98677.59;;;13.83;89.46
31183;BME280;17813;0.000;0.000;2023-08-30T02:27:13;98681.91;;;13.75;89.78
31183;BME280;17813;0.000;0.000;2023-08-30T02:29:40;98669.94;;;13.69;89.69
31183;BME280;17813;0.000;0.000;2023-08-30T02:32:07;98668.78;;;13.62;89.54
31183;BME280;17813;0.000;0.000;2023-08-30T02:34:34;98680.81;;;13.57;89.58
31183;BME280;17813;0.000;0.000;2023-08-30T02:37:02;98675.06;;;13.51;89.89
31183;BME280;17813;0.000;0.000;2023-08-30T02:39:29;98677.13;;;13.48;89.77
31183;BME280;17813;0.000;0.000;2023-08-30T02:41:56;98668.69;;;13.43;90.10
31183;BME280;17813;0.000;0.000;2023-08-30T02:44:23;98669.94;;;13.39;90.07
31183;BME280;17813;0.000;0.000;2023-08-30T02:46:50;98671.06;;;13.36;90.20
31183;BME280;17813;0.000;0.000;2023-08-30T02:49:17;98676.50;;;13.35;89.95
31183;BME280;17813;0.000;0.000;2023-08-30T02:51:44;98667.69;;;13.34;90.15
31183;BME280;17813;0.000;0.000;2023-08-30T02:54:10;98665.28;;;13.31;89.88
31183;BME280;17813;0.000;0.000;2023-08-30T02:56:41;98667.75;;;13.23;89.95
31183;BME280;17813;0.000;0.000;2023-08-30T02:59:11;98669.03;;;13.08;90.39
31183;BME280;17813;0.000;0.000;2023-08-30T03:01:38;98675.84;;;13.01;90.73
31183;BME280;17813;0.000;0.000;2023-08-30T03:04:06;98680.94;;;12.93;90.97
31183;BME280;17813;0.000;0.000;2023-08-30T03:06:33;98672.63;;;12.86;91.06
31183;BME280;17813;0.000;0.000;2023-08-30T03:09:01;98677.81;;;12.87;91.22
31183;BME280;17813;0.000;0.000;2023-08-30T03:11:29;98677.94;;;12.86;91.02
31183;BME280;17813;0.000;0.000;2023-08-30T03:13:56;98671.91;;;12.84;90.79
31183;BME280;17813;0.000;0.000;2023-08-30T03:16:23;98679.16;;;12.82;90.79
31183;BME280;17813;0.000;0.000;2023-08-30T03:18:50;98678.56;;;12.78;90.59
31183;BME280;17813;0.000;0.000;2023-08-30T03:21:17;98675.19;;;12.76;90.96
31183;BME280;17813;0.000;0.000;2023-08-30T03:23:44;98661.91;;;12.76;90.88
31183;BME280;17813;0.000;0.000;2023-08-30T03:26:15;98669.41;;;12.71;90.80
31183;BME280;17813;0.000;0.000;2023-08-30T03:28:43;98662.66;;;12.67;90.97
31183;BME280;17813;0.000;0.000;2023-08-30T03:31:18;98668.38;;;12.63;91.04
31183;BME280;17813;0.000;0.000;2023-08-30T03:33:54;98671.88;;;12.63;91.33
31183;BME280;17813;0.000;0.000;2023-08-30T03:36:21;98673.81;;;12.61;91.45
31183;BME280;17813;0.000;0.000;2023-08-30T03:38:48;98679.38;;;12.58;91.33
31183;BME280;17813;0.000;0.000;2023-08-30T03:41:15;98679.63;;;12.55;91.11
31183;BME280;17813;0.000;0.000;2023-08-30T03:43:42;98688.13;;;12.49;90.68
31183;BME280;17813;0.000;0.000;2023-08-30T03:46:08;98689.47;;;12.43;91.00
31183;BME280;17813;0.000;0.000;2023-08-30T03:48:38;98686.09;;;12.41;91.19
31183;BME280;17813;0.000;0.000;2023-08-30T03:51:05;98683.44;;;12.41;91.29
31183;BME280;17813;0.000;0.000;2023-08-30T03:53:32;98683.69;;;12.38;91.17
31183;BME280;17813;0.000;0.000;2023-08-30T03:55:59;98681.16;;;12.37;91.11
31183;BME280;17813;0.000;0.000;2023-08-30T03:58:26;98682.84;;;12.38;91.21
31183;BME280;17813;0.000;0.000;2023-08-30T04:01:11;98689.50;;;12.32;91.43
31183;BME280;17813;0.000;0.000;2023-08-30T04:03:38;98686.00;;;12.32;91.47
31183;BME280;17813;0.000;0.000;2023-08-30T04:06:05;98676.47;;;12.29;91.34
31183;BME280;17813;0.000;0.000;2023-08-30T04:08:33;98687.22;;;12.28;91.11
31183;BME280;17813;0.000;0.000;2023-08-30T04:11:02;98678.78;;;12.22;91.34
31183;BME280;17813;0.000;0.000;2023-08-30T04:13:30;98676.84;;;12.24;91.31
31183;BME280;17813;0.000;0.000;2023-08-30T04:15:57;98686.50;;;12.26;91.28
31183;BME280;17813;0.000;0.000;2023-08-30T04:18:25;98683.84;;;12.26;91.34
31183;BME280;17813;0.000;0.000;2023-08-30T04:20:53;98687.59;;;12.23;91.41
31183;BME280;17813;0.000;0.000;2023-08-30T04:23:20;98682.28;;;12.23;91.39
31183;BME280;17813;0.000;0.000;2023-08-30T04:25:47;98685.31;;;12.18;91.69
31183;BME280;17813;0.000;0.000;2023-08-30T04:28:13;98679.16;;;12.07;92.52
31183;BME280;17813;0.000;0.000;2023-08-30T04:30:41;98685.31;;;12.07;92.50
31183;BME280;17813;0.000;0.000;2023-08-30T04:33:08;98693.28;;;12.07;92.44
31183;BME280;17813;0.000;0.000;2023-08-30T04:35:35;98691.97;;;12.02;92.75
31183;BME280;17813;0.000;0.000;2023-08-30T04:38:02;98683.88;;;12.03;92.25
31183;BME280;17813;0.000;0.000;2023-08-30T04:40:30;98680.03;;;11.96;92.76
31183;BME280;17813;0.000;0.000;2023-08-30T04:42:58;98684.50;;;11.96;92.91
31183;BME280;17813;0.000;0.000;2023-08-30T04:45:25;98684.25;;;11.99;93.34
31183;BME280;17813;0.000;0.000;2023-08-30T04:47:53;98690.88;;;12.04;92.83
31183;BME280;17813;0.000;0.000;2023-08-30T04:50:40;98684.59;;;12.05;92.81
31183;BME280;17813;0.000;0.000;2023-08-30T04:53:06;98686.75;;;12.11;93.22
31183;BME280;17813;0.000;0.000;2023-08-30T04:55:34;98691.59;;;12.17;92.77
31183;BME280;17813;0.000;0.000;2023-08-30T04:58:02;98691.34;;;12.20;92.90
31183;BME280;17813;0.000;0.000;2023-08-30T05:00:29;98688.56;;;12.22;92.91
31183;BME280;17813;0.000;0.000;2023-08-30T05:02:59;98685.41;;;12.28;92.87
31183;BME280;17813;0.000;0.000;2023-08-30T05:05:26;98683.81;;;12.37;92.38
31183;BME280;17813;0.000;0.000;2023-08-30T05:07:54;98690.44;;;12.42;92.02
31183;BME280;17813;0.000;0.000;2023-08-30T05:10:21;98687.16;;;12.50;91.69
31183;BME280;17813;0.000;0.000;2023-08-30T05:12:49;98691.00;;;12.57;91.83
31183;BME280;17813;0.000;0.000;2023-08-30T05:15:19;98679.00;;;12.63;91.64
31183;BME280;17813;0.000;0.000;2023-08-30T05:17:46;98678.25;;;12.72;91.58
31183;BME280;17813;0.000;0.000;2023-08-30T05:20:14;98678.56;;;12.78;91.35
31183;BME280;17813;0.000;0.000;2023-08-30T05:22:45;98674.44;;;12.85;91.29
31183;BME280;17813;0.000;0.000;2023-08-30T05:25:12;98672.22;;;12.91;90.93
31183;BME280;17813;0.000;0.000;2023-08-30T05:27:42;98675.47;;;12.94;90.67
31183;BME280;17813;0.000;0.000;2023-08-30T05:30:11;98676.19;;;12.96;90.59
31183;BME280;17813;0.000;0.000;2023-08-30T05:32:44;98670.03;;;12.96;90.65
31183;BME280;17813;0.000;0.000;2023-08-30T05:35:23;98669.94;;;12.86;90.61
31183;BME280;17813;0.000;0.000;2023-08-30T05:37:52;98670.03;;;12.96;90.72
31183;BME280;17813;0.000;0.000;2023-08-30T05:40:37;98674.25;;;12.98;90.48
31183;BME280;17813;0.000;0.000;2023-08-30T05:43:27;98679.22;;;13.03;90.59
31183;BME280;17813;0.000;0.000;2023-08-30T05:46:01;98673.81;;;13.14;90.52
31183;BME280;17813;0.000;0.000;2023-08-30T05:48:30;98676.72;;;13.22;89.83
31183;BME280;17813;0.000;0.000;2023-08-30T05:50:57;98674.09;;;13.32;89.61
31183;BME280;17813;0.000;0.000;2023-08-30T05:53:25;98672.34;;;13.42;89.17
31183;BME280;17813;0.000;0.000;2023-08-30T05:55:52;98665.25;;;13.52;88.82
31183;BME280;17813;0.000;0.000;2023-08-30T05:58:23;98661.78;;;13.61;88.71
31183;BME280;17813;0.000;0.000;2023-08-30T06:00:52;98666.34;;;13.80;88.92
31183;BME280;17813;0.000;0.000;2023-08-30T06:03:22;98666.97;;;14.43;88.56
31183;BME280;17813;0.000;0.000;2023-08-30T06:05:53;98667.66;;;15.12;85.80
31183;BME280;17813;0.000;0.000;2023-08-30T06:08:20;98655.22;;;15.40;83.78
31183;BME280;17813;0.000;0.000;2023-08-30T06:10:50;98658.00;;;16.23;82.66
31183;BME280;17813;0.000;0.000;2023-08-30T06:13:17;98651.69;;;17.39;79.46
31183;BME280;17813;0.000;0.000;2023-08-30T06:15:45;98649.25;;;18.63;73.78
31183;BME280;17813;0.000;0.000;2023-08-30T06:18:12;98649.16;;;19.85;70.15
31183;BME280;17813;0.000;0.000;2023-08-30T06:20:42;98639.84;;;20.66;64.92
31183;BME280;17813;0.000;0.000;2023-08-30T06:23:09;98642.63;;;21.27;62.60
31183;BME280;17813;0.000;0.000;2023-08-30T06:25:40;98640.84;;;20.96;62.47
31183;BME280;17813;0.000;0.000;2023-08-30T06:28:09;98643.38;;;20.36;62.67
31183;BME280;17813;0.000;0.000;2023-08-30T06:30:38;98650.47;;;19.98;64.60
31183;BME280;17813;0.000;0.000;2023-08-30T06:33:28;98647.66;;;20.84;63.68
31183;BME280;17813;0.000;0.000;2023-08-30T06:35:58;98645.75;;;21.82;59.60
31183;BME280;17813;0.000;0.000;2023-08-30T06:38:27;98643.22;;;22.25;59.01
31183;BME280;17813;0.000;0.000;2023-08-30T06:40:57;98640.47;;;22.40;57.53
31183;BME280;17813;0.000;0.000;2023-08-30T06:43:25;98640.22;;;22.35;55.93
31183;BME280;17813;0.000;0.000;2023-08-30T06:45:57;98641.31;;;22.40;55.06
31183;BME280;17813;0.000;0.000;2023-08-30T06:48:28;98641.50;;;22.39;56.54
31183;BME280;17813;0.000;0.000;2023-08-30T06:51:00;98638.44;;;22.42;56.34
31183;BME280;17813;0.000;0.000;2023-08-30T06:53:32;98643.09;;;22.33;55.93
31183;BME280;17813;0.000;0.000;2023-08-30T06:56:05;98641.44;;;22.32;54.15
31183;BME280;17813;0.000;0.000;2023-08-30T06:58:33;98649.81;;;22.37;55.34
31183;BME280;17813;0.000;0.000;2023-08-30T07:01:03;98644.03;;;22.62;53.75
31183;BME280;17813;0.000;0.000;2023-08-30T07:03:38;98643.88;;;23.06;53.27
31183;BME280;17813;0.000;0.000;2023-08-30T07:06:07;98644.59;;;23.15;51.60
31183;BME280;17813;0.000;0.000;2023-08-30T07:08:35;98644.19;;;23.18;50.44
31183;BME280;17813;0.000;0.000;2023-08-30T07:11:02;98642.31;;;23.18;51.96
31183;BME280;17813;0.000;0.000;2023-08-30T07:13:31;98636.13;;;23.73;50.27
31183;BME280;17813;0.000;0.000;2023-08-30T07:15:59;98635.56;;;24.26;49.27
31183;BME280;17813;0.000;0.000;2023-08-30T07:18:30;98624.34;;;25.16;48.34
31183;BME280;17813;0.000;0.000;2023-08-30T07:21:01;98625.34;;;25.61;45.87
31183;BME280;17813;0.000;0.000;2023-08-30T07:23:32;98623.75;;;26.25;44.63
31183;BME280;17813;0.000;0.000;2023-08-30T07:26:01;98622.66;;;27.09;43.86
31183;BME280;17813;0.000;0.000;2023-08-30T07:28:29;98614.72;;;27.32;42.12
31183;BME280;17813;0.000;0.000;2023-08-30T07:31:03;98622.78;;;27.45;40.32
31183;BME280;17813;0.000;0.000;2023-08-30T07:33:36;98623.09;;;27.06;41.30
31183;BME280;17813;0.000;0.000;2023-08-30T07:36:05;98624.34;;;26.72;43.52
31183;BME280;17813;0.000;0.000;2023-08-30T07:38:41;98623.78;;;27.26;42.90
31183;BME280;17813;0.000;0.000;2023-08-30T07:41:13;98618.75;;;28.09;41.69
31183;BME280;17813;0.000;0.000;2023-08-30T07:43:47;98624.34;;;28.51;40.63
31183;BME280;17813;0.000;0.000;2023-08-30T07:46:15;98621.34;;;28.23;39.42
31183;BME280;17813;0.000;0.000;2023-08-30T07:48:43;98612.03;;;28.30;39.28
31183;BME280;17813;0.000;0.000;2023-08-30T07:51:15;98611.00;;;28.61;39.25
31183;BME280;17813;0.000;0.000;2023-08-30T07:53:46;98610.69;;;28.69;39.56
31183;BME280;17813;0.000;0.000;2023-08-30T07:56:18;98619.22;;;29.03;37.64
31183;BME280;17813;0.000;0.000;2023-08-30T07:58:45;98615.34;;;29.22;37.80
31183;BME280;17813;0.000;0.000;2023-08-30T08:01:13;98610.53;;;29.48;37.33
31183;BME280;17813;0.000;0.000;2023-08-30T08:03:41;98611.81;;;30.03;36.25
31183;BME280;17813;0.000;0.000;2023-08-30T08:06:09;98613.41;;;30.28;37.75
31183;BME280;17813;0.000;0.000;2023-08-30T08:08:41;98600.56;;;30.85;36.46
31183;BME280;17813;0.000;0.000;2023-08-30T08:11:32;98600.28;;;31.82;35.51
31183;BME280;17813;0.000;0.000;2023-08-30T08:14:07;98593.97;;;32.04;32.08
31183;BME280;17813;0.000;0.000;2023-08-30T08:16:38;98594.28;;;32.51;32.20
31183;BME280;17813;0.000;0.000;2023-08-30T08:19:08;98592.81;;;32.92;32.27
31183;BME280;17813;0.000;0.000;2023-08-30T08:21:40;98586.81;;;32.95;31.31
31183;BME280;17813;0.000;0.000;2023-08-30T08:24:09;98592.84;;;32.97;31.70
31183;BME280;17813;0.000;0.000;2023-08-30T08:26:55;98597.00;;;32.73;31.77
31183;BME280;17813;0.000;0.000;2023-08-30T08:29:22;98596.72;;;32.47;30.96
31183;BME280;17813;0.000;0.000;2023-08-30T08:31:50;98590.06;;;33.24;31.19
31183;BME280;17813;0.000;0.000;2023-08-30T08:34:22;98598.13;;;33.73;30.69
31183;BME280;17813;0.000;0.000;2023-08-30T08:36:51;98592.53;;;33.95;29.89
31183;BME280;17813;0.000;0.000;2023-08-30T08:39:23;98598.28;;;33.88;28.01
31183;BME280;17813;0.000;0.000;2023-08-30T08:41:52;98592.13;;;32.53;29.08
31183;BME280;17813;0.000;0.000;2023-08-30T08:44:21;98590.94;;;31.45;31.49
31183;BME280;17813;0.000;0.000;2023-08-30T08:46:50;98582.13;;;30.64;32.27
31183;BME280;17813;0.000;0.000;2023-08-30T08:49:29;98586.16;;;29.34;33.25
31183;BME280;17813;0.000;0.000;2023-08-30T08:52:03;98581.44;;;28.28;35.13
31183;BME280;17813;0.000;0.000;2023-08-30T08:54:30;98587.72;;;27.74;37.06
31183;BME280;17813;0.000;0.000;2023-08-30T08:56:58;98589.84;;;27.29;37.44
31183;BME280;17813;0.000;0.000;2023-08-30T08:59:27;98589.00;;;26.72;37.57
31183;BME280;17813;0.000;0.000;2023-08-30T09:01:56;98587.34;;;26.26;38.62
31183;BME280;17813;0.000;0.000;2023-08-30T09:04:24;98586.59;;;26.12;39.55
31183;BME280;17813;0.000;0.000;2023-08-30T09:06:53;98595.66;;;25.80;40.65
31183;BME280;17813;0.000;0.000;2023-08-30T09:09:20;98599.22;;;25.60;41.18
31183;BME280;17813;0.000;0.000;2023-08-30T09:11:49;98587.84;;;26.86;39.65
31183;BME280;17813;0.000;0.000;2023-08-30T09:14:21;98587.13;;;27.90;37.34
31183;BME280;17813;0.000;0.000;2023-08-30T09:16:58;98576.66;;;28.72;33.00
31183;BME280;17813;0.000;0.000;2023-08-30T09:20:04;98571.41;;;30.34;32.54
31183;BME280;17813;0.000;0.000;2023-08-30T09:22:39;98569.28;;;32.04;33.02
31183;BME280;17813;0.000;0.000;2023-08-30T09:25:21;98563.72;;;33.28;30.28
31183;BME280;17813;0.000;0.000;2023-08-30T09:27:50;98563.50;;;34.29;28.93
31183;BME280;17813;0.000;0.000;2023-08-30T09:30:23;98571.81;;;34.34;26.91
31183;BME280;17813;0.000;0.000;2023-08-30T09:33:08;98561.97;;;34.64;25.89
31183;BME280;17813;0.000;0.000;2023-08-30T09:35:46;98563.66;;;35.16;27.39
31183;BME280;17813;0.000;0.000;2023-08-30T09:38:34;98555.63;;;35.80;27.07
31183;BME280;17813;0.000;0.000;2023-08-30T09:41:07;98551.22;;;36.38;27.17
31183;BME280;17813;0.000;0.000;2023-08-30T09:43:34;98550.25;;;37.08;26.31
31183;BME280;17813;0.000;0.000;2023-08-30T09:46:06;98548.66;;;37.59;25.18
31183;BME280;17813;0.000;0.000;2023-08-30T09:48:34;98556.63;;;37.37;24.05
31183;BME280;17813;0.000;0.000;2023-08-30T09:51:09;98546.69;;;37.36;24.17
31183;BME280;17813;0.000;0.000;2023-08-30T09:53:59;98553.81;;;37.71;24.00
31183;BME280;17813;0.000;0.000;2023-08-30T09:56:33;98537.97;;;38.01;22.34
31183;BME280;17813;0.000;0.000;2023-08-30T09:59:13;98542.66;;;38.00;22.67
31183;BME280;17813;0.000;0.000;2023-08-30T10:01:47;98556.16;;;37.83;21.85
31183;BME280;17813;0.000;0.000;2023-08-30T10:04:23;98546.63;;;38.18;23.41
31183;BME280;17813;0.000;0.000;2023-08-30T10:06:56;98533.53;;;38.23;21.94
31183;BME280;17813;0.000;0.000;2023-08-30T10:09:28;98528.38;;;38.73;23.05
31183;BME280;17813;0.000;0.000;2023-08-30T10:12:01;98536.09;;;37.96;22.28
31183;BME280;17813;0.000;0.000;2023-08-30T10:14:32;98540.22;;;36.83;23.37
31183;BME280;17813;0.000;0.000;2023-08-30T10:17:03;98539.03;;;37.28;24.15
31183;BME280;17813;0.000;0.000;2023-08-30T10:19:55;98537.09;;;37.28;22.57
31183;BME280;17813;0.000;0.000;2023-08-30T10:22:26;98542.63;;;37.81;22.03
31183;BME280;17813;0.000;0.000;2023-08-30T10:24:59;98539.69;;;37.73;21.79
31183;BME280;17813;0.000;0.000;2023-08-30T10:27:31;98532.78;;;38.18;21.53
31183;BME280;17813;0.000;0.000;2023-08-30T10:30:00;98536.97;;;38.53;21.61
31183;BME280;17813;0.000;0.000;2023-08-30T10:32:37;98531.81;;;38.46;22.48
31183;BME280;17813;0.000;0.000;2023-08-30T10:35:05;98532.66;;;38.47;22.00
31183;BME280;17813;0.000;0.000;2023-08-30T10:37:32;98528.53;;;38.02;21.82
31183;BME280;17813;0.000;0.000;2023-08-30T10:40:14;98522.56;;;37.42;22.12
31183;BME280;17813;0.000;0.000;2023-08-30T10:42:42;98531.06;;;36.87;22.53
31183;BME280;17813;0.000;0.000;2023-08-30T10:45:11;98527.72;;;36.90;23.25
31183;BME280;17813;0.000;0.000;2023-08-30T10:47:56;98525.75;;;36.57;23.10
31183;BME280;17813;0.000;0.000;2023-08-30T10:50:31;98520.25;;;35.92;23.10
31183;BME280;17813;0.000;0.000;2023-08-30T10:53:00;98536.69;;;34.87;23.81
31183;BME280;17813;0.000;0.000;2023-08-30T10:55:32;98521.38;;;33.66;25.98
31183;BME280;17813;0.000;0.000;2023-08-30T10:58:20;98517.03;;;33.75;26.96
31183;BME280;17813;0.000;0.000;2023-08-30T11:00:49;98522.66;;;33.96;26.68
31183;BME280;17813;0.000;0.000;2023-08-30T11:03:46;98519.75;;;33.28;25.17
31183;BME280;17813;0.000;0.000;2023-08-30T11:06:26;98524.38;;;32.85;26.08
31183;BME280;17813;0.000;0.000;2023-08-30T11:08:58;98519.78;;;32.37;25.84
31183;BME280;17813;0.000;0.000;2023-08-30T11:11:43;98526.97;;;31.56;27.73
31183;BME280;17813;0.000;0.000;2023-08-30T11:14:15;98524.34;;;30.94;27.70
31183;BME280;17813;0.000;0.000;2023-08-30T11:16:44;98525.63;;;30.58;30.40
31183;BME280;17813;0.000;0.000;2023-08-30T11:19:18;98518.34;;;30.63;29.76
31183;BME280;17813;0.000;0.000;2023-08-30T11:21:48;98518.16;;;30.53;28.82
31183;BME280;17813;0.000;0.000;2023-08-30T11:24:21;98513.03;;;30.28;30.34
31183;BME280;17813;0.000;0.000;2023-08-30T11:26:54;98518.13;;;30.36;29.54
31183;BME280;17813;0.000;0.000;2023-08-30T11:29:21;98508.50;;;30.62;29.39
31183;BME280;17813;0.000;0.000;2023-08-30T11:31:52;98504.19;;;30.83;30.49
31183;BME280;17813;0.000;0.000;2023-08-30T11:34:22;98501.78;;;30.87;29.58
31183;BME280;17813;0.000;0.000;2023-08-30T11:36:52;98500.63;;;30.99;29.54
31183;BME280;17813;0.000;0.000;2023-08-30T11:39:28;98500.69;;;30.88;28.94
31183;BME280;17813;0.000;0.000;2023-08-30T11:41:57;98498.00;;;30.43;29.83
31183;BME280;17813;0.000;0.000;2023-08-30T11:44:37;98491.34;;;29.70;28.98
31183;BME280;17813;0.000;0.000;2023-08-30T11:47:05;98496.28;;;29.33;29.58
31183;BME280;17813;0.000;0.000;2023-08-30T11:49:36;98493.78;;;29.08;30.77
31183;BME280;17813;0.000;0.000;2023-08-30T11:52:07;98492.59;;;28.92;31.08
31183;BME280;17813;0.000;0.000;2023-08-30T11:54:35;98498.38;;;28.72;30.92
31183;BME280;17813;0.000;0.000;2023-08-30T11:57:05;98498.47;;;28.66;30.98
31183;BME280;17813;0.000;0.000;2023-08-30T11:59:35;98492.31;;;28.70;30.57
31183;BME280;17813;0.000;0.000;2023-08-30T12:02:05;98492.31;;;28.70;30.28
31183;BME280;17813;0.000;0.000;2023-08-30T12:04:39;98490.38;;;28.59;30.06
31183;BME280;17813;0.000;0.000;2023-08-30T12:07:20;98493.09;;;28.59;30.95
31183;BME280;17813;0.000;0.000;2023-08-30T12:10:10;98491.34;;;28.05;31.15
31183;BME280;17813;0.000;0.000;2023-08-30T12:13:00;98489.00;;;27.60;29.91
31183;BME280;17813;0.000;0.000;2023-08-30T12:15:33;98476.94;;;27.49;31.20
31183;BME280;17813;0.000;0.000;2023-08-30T12:18:11;98489.31;;;27.09;32.08
31183;BME280;17813;0.000;0.000;2023-08-30T12:20:55;98489.84;;;26.99;32.96
31183;BME280;17813;0.000;0.000;2023-08-30T12:23:27;98485.25;;;26.93;32.79
31183;BME280;17813;0.000;0.000;2023-08-30T12:26:06;98482.53;;;26.68;33.26
31183;BME280;17813;0.000;0.000;2023-08-30T12:28:42;98484.03;;;26.64;33.88
31183;BME280;17813;0.000;0.000;2023-08-30T12:31:12;98489.03;;;26.67;33.51
31183;BME280;17813;0.000;0.000;2023-08-30T12:33:50;98490.69;;;26.43;33.23
31183;BME280;17813;0.000;0.000;2023-08-30T12:36:18;98487.97;;;26.43;33.97
31183;BME280;17813;0.000;0.000;2023-08-30T12:38:45;98483.16;;;26.45;34.09
31183;BME280;17813;0.000;0.000;2023-08-30T12:41:13;98493.22;;;26.38;34.59
31183;BME280;17813;0.000;0.000;2023-08-30T12:43:40;98489.16;;;26.16;34.35
31183;BME280;17813;0.000;0.000;2023-08-30T12:46:09;98488.81;;;26.06;34.58
31183;BME280;17813;0.000;0.000;2023-08-30T12:48:36;98480.06;;;25.97;35.02
31183;BME280;17813;0.000;0.000;2023-08-30T12:51:05;98482.41;;;25.87;35.10
31183;BME280;17813;0.000;0.000;2023-08-30T12:53:34;98474.91;;;25.82;35.98
31183;BME280;17813;0.000;0.000;2023-08-30T12:56:01;98477.91;;;25.68;35.55
31183;BME280;17813;0.000;0.000;2023-08-30T12:58:28;98473.91;;;25.63;35.69
31183;BME280;17813;0.000;0.000;2023-08-30T13:00:59;98469.53;;;25.62;35.68
31183;BME280;17813;0.000;0.000;2023-08-30T13:03:27;98474.78;;;25.57;35.46
31183;BME280;17813;0.000;0.000;2023-08-30T13:05:54;98488.78;;;25.54;35.93
31183;BME280;17813;0.000;0.000;2023-08-30T13:08:22;98480.00;;;25.52;36.33
31183;BME280;17813;0.000;0.000;2023-08-30T13:10:50;98477.06;;;25.60;36.70
31183;BME280;17813;0.000;0.000;2023-08-30T13:13:17;98482.47;;;25.74;36.86
31183;BME280;17813;0.000;0.000;2023-08-30T13:15:44;98475.31;;;25.86;36.39
31183;BME280;17813;0.000;0.000;2023-08-30T13:18:13;98475.00;;;25.56;35.74
31183;BME280;17813;0.000;0.000;2023-08-30T13:20:43;98476.63;;;25.63;37.06
31183;BME280;17813;0.000;0.000;2023-08-30T13:23:13;98474.28;;;25.80;37.33
31183;BME280;17813;0.000;0.000;2023-08-30T13:25:40;98480.50;;;25.94;36.37
31183;BME280;17813;0.000;0.000;2023-08-30T13:28:08;98475.00;;;26.07;36.54
31183;BME280;17813;0.000;0.000;2023-08-30T13:30:35;98477.88;;;26.19;35.82
31183;BME280;17813;0.000;0.000;2023-08-30T13:33:04;98470.75;;;26.18;34.68